Time;durP1;ratioP1;P1;durP2;ratioP2;P2;SDS_P1;SDS_P2;PMS_P1;PMS_P2;Temp;Humidity;BMP_temperature;BMP_pressure;BME280_temperature;BME280_humidity;BME280_pressure;Samples;Min_cycle;Max_cycle;Signal;HPM_P1;HPM_P2
2023/09/01 00:01:21;;;;;;;;;;;;;;;13.76;100.00;95734.25;10526078;28;2272;-76
2023/09/01 00:06:24;;;;;;;;;;;;;;;13.83;100.00;95742.78;10529135;28;1886;-77
2023/09/01 00:11:26;;;;;;;;;;;;;;;13.86;100.00;95744.06;10530905;28;1878;-77
2023/09/01 00:16:28;;;;;;;;;;;;;;;13.85;100.00;95756.78;10530955;28;1906;-78
2023/09/01 00:21:32;;;;;;;;;;;;;;;13.70;100.00;95763.25;10526013;28;2006;-77
2023/09/01 00:26:34;;;;;;;;;;;;;;;13.55;100.00;95770.75;10527890;28;1902;-77
2023/09/01 00:31:37;;;;;;;;;;;;;;;13.41;100.00;95776.88;10528064;28;1831;-79
2023/09/01 00:36:39;;;;;;;;;;;;;;;13.31;100.00;95778.94;10533933;28;1914;-79
2023/09/01 00:41:41;;;;;;;;;;;;;;;13.19;100.00;95779.31;10530559;28;4365;-76
2023/09/01 00:46:46;;;;;;;;;;;;;;;13.12;100.00;95786.97;10529274;28;1941;-77
2023/09/01 00:51:48;;;;;;;;;;;;;;;13.08;100.00;95783.22;10526343;28;1894;-76
2023/09/01 00:56:51;;;;;;;;;;;;;;;13.11;100.00;95783.47;10522191;28;2711;-75
2023/09/01 01:01:53;;;;;;;;;;;;;;;13.14;100.00;95785.59;10516740;28;2017;-74
2023/09/01 01:06:56;;;;;;;;;;;;;;;13.16;100.00;95779.88;10519691;28;1946;-75
2023/09/01 01:11:58;;;;;;;;;;;;;;;13.10;100.00;95770.25;10524923;28;1908;-76
2023/09/01 01:17:01;;;;;;;;;;;;;;;13.16;100.00;95764.50;10523316;28;1989;-75
2023/09/01 01:22:03;;;;;;;;;;;;;;;13.18;100.00;95743.44;10522968;28;2074;-75
2023/09/01 01:27:05;;;;;;;;;;;;;;;13.15;100.00;95718.91;10523670;28;1912;-75
2023/09/01 01:32:10;;;;;;;;;;;;;;;13.18;100.00;95704.84;10517124;28;1949;-75
2023/09/01 01:37:12;;;;;;;;;;;;;;;13.14;100.00;95696.50;10520748;28;1980;-78
2023/09/01 01:42:15;;;;;;;;;;;;;;;13.17;100.00;95705.94;10517260;28;4520;-78
2023/09/01 01:47:17;;;;;;;;;;;;;;;13.23;100.00;95700.22;10525116;28;1991;-78
2023/09/01 01:52:20;;;;;;;;;;;;;;;13.22;100.00;95703.19;10520482;28;2081;-79
2023/09/01 01:57:23;;;;;;;;;;;;;;;13.29;100.00;95700.91;10515136;28;1982;-79
2023/09/01 02:02:26;;;;;;;;;;;;;;;13.36;100.00;95701.38;10517540;28;2018;-79
2023/09/01 02:07:28;;;;;;;;;;;;;;;13.37;100.00;95700.28;10518773;28;2279;-78
2023/09/01 02:12:31;;;;;;;;;;;;;;;13.38;100.00;95691.06;10525891;28;1960;-78
2023/09/01 02:17:33;;;;;;;;;;;;;;;13.34;100.00;95683.84;10513822;28;2254;-76
2023/09/01 02:22:36;;;;;;;;;;;;;;;13.37;100.00;95681.38;10516598;28;1929;-79
2023/09/01 02:27:38;;;;;;;;;;;;;;;13.32;100.00;95681.44;10513906;28;2027;-77
2023/09/01 02:32:41;;;;;;;;;;;;;;;13.29;100.00;95670.41;10516195;28;2032;-77
2023/09/01 02:37:43;;;;;;;;;;;;;;;13.31;100.00;95673.66;10516818;28;1983;-78
2023/09/01 02:42:46;;;;;;;;;;;;;;;13.25;100.00;95664.81;10527924;28;4610;-77
2023/09/01 02:47:48;;;;;;;;;;;;;;;13.29;100.00;95670.41;10520186;28;1964;-76
2023/09/01 02:52:51;;;;;;;;;;;;;;;13.25;100.00;95660.22;10526792;28;2293;-77
2023/09/01 02:57:53;;;;;;;;;;;;;;;13.22;100.00;95658.09;10528369;28;2023;-76
2023/09/01 03:02:56;;;;;;;;;;;;;;;13.16;100.00;95647.63;10522355;28;2024;-75
2023/09/01 03:07:59;;;;;;;;;;;;;;;13.16;100.00;95653.03;10533222;28;1970;-76
2023/09/01 03:13:02;;;;;;;;;;;;;;;13.19;100.00;95660.56;10522476;28;1968;-76
2023/09/01 03:18:04;;;;;;;;;;;;;;;13.24;100.00;95647.81;10520466;28;1988;-75
2023/09/01 03:23:07;;;;;;;;;;;;;;;13.30;100.00;95648.56;10530217;28;1977;-75
2023/09/01 03:28:09;;;;;;;;;;;;;;;13.35;100.00;95651.16;10526810;28;2009;-76
2023/09/01 03:33:12;;;;;;;;;;;;;;;13.25;100.00;95638.63;10526083;28;1960;-75
2023/09/01 03:38:14;;;;;;;;;;;;;;;13.32;100.00;95638.25;10533950;28;1977;-77
2023/09/01 03:43:17;;;;;;;;;;;;;;;13.29;100.00;95628.03;10530966;28;4527;-75
2023/09/01 03:48:19;;;;;;;;;;;;;;;13.33;100.00;95645.25;10528623;28;2251;-76
2023/09/01 03:53:22;;;;;;;;;;;;;;;13.38;100.00;95641.69;10523663;28;2009;-76
2023/09/01 03:58:25;;;;;;;;;;;;;;;13.36;100.00;95644.69;10521568;28;2247;-75
2023/09/01 04:03:27;;;;;;;;;;;;;;;13.42;100.00;95646.22;10520495;28;1964;-76
2023/09/01 04:08:29;;;;;;;;;;;;;;;13.45;100.00;95648.31;10522370;28;1925;-75
2023/09/01 04:13:32;;;;;;;;;;;;;;;13.49;100.00;95648.53;10528094;28;2065;-75
2023/09/01 04:18:34;;;;;;;;;;;;;;;13.44;100.00;95662.91;10526471;28;2209;-75
2023/09/01 04:23:39;;;;;;;;;;;;;;;13.50;100.00;95661.72;10525275;28;2307;-75
2023/09/01 04:28:42;;;;;;;;;;;;;;;13.51;100.00;95657.94;10524117;28;1999;-75
2023/09/01 04:33:44;;;;;;;;;;;;;;;13.45;100.00;95661.81;10515530;28;2196;-75
2023/09/01 04:38:46;;;;;;;;;;;;;;;13.51;100.00;95668.72;10522468;28;2063;-75
2023/09/01 04:43:49;;;;;;;;;;;;;;;13.61;100.00;95669.66;10526677;28;4472;-75
2023/09/01 04:48:51;;;;;;;;;;;;;;;13.58;100.00;95665.66;10526722;28;1917;-76
2023/09/01 04:53:54;;;;;;;;;;;;;;;13.74;100.00;95671.59;10524995;28;1952;-75
2023/09/01 04:58:56;;;;;;;;;;;;;;;13.80;100.00;95665.00;10525240;28;1996;-76
2023/09/01 05:03:59;;;;;;;;;;;;;;;13.82;100.00;95670.94;10525645;28;1953;-75
2023/09/01 05:09:03;;;;;;;;;;;;;;;13.89;100.00;95675.97;10520889;28;2102;-75
2023/09/01 05:14:06;;;;;;;;;;;;;;;14.06;100.00;95682.41;10523671;28;2060;-75
2023/09/01 05:19:08;;;;;;;;;;;;;;;14.27;100.00;95684.72;10523953;28;2019;-75
2023/09/01 05:24:10;;;;;;;;;;;;;;;14.44;100.00;95678.72;10522480;28;2002;-75
2023/09/01 05:29:13;;;;;;;;;;;;;;;14.70;100.00;95669.06;10516619;28;1937;-75
2023/09/01 05:34:15;;;;;;;;;;;;;;;15.00;100.00;95681.13;10525189;28;2003;-77
2023/09/01 05:39:18;;;;;;;;;;;;;;;15.28;100.00;95676.47;10523996;28;2176;-78
2023/09/01 05:44:21;;;;;;;;;;;;;;;15.27;100.00;95682.16;10541550;27;4533;-77
2023/09/01 05:49:23;;;;;;;;;;;;;;;15.25;100.00;95671.63;10528112;28;1973;-78
2023/09/01 05:54:26;;;;;;;;;;;;;;;15.45;100.00;95681.19;10523725;28;1804;-77
2023/09/01 05:59:29;;;;;;;;;;;;;;;15.79;100.00;95685.31;10524153;28;1929;-80
2023/09/01 06:04:31;;;;;;;;;;;;;;;16.01;100.00;95690.72;10520584;28;1884;-74
2023/09/01 06:09:34;;;;;;;;;;;;;;;16.39;100.00;95682.13;10519257;28;2149;-75
2023/09/01 06:14:37;;;;;;;;;;;;;;;16.51;100.00;95684.28;10521547;28;1938;-75
2023/09/01 06:19:39;;;;;;;;;;;;;;;16.97;100.00;95681.09;10525352;28;2071;-78
2023/09/01 06:24:42;;;;;;;;;;;;;;;17.29;100.00;95674.41;10522778;28;1964;-77
2023/09/01 06:29:44;;;;;;;;;;;;;;;17.76;100.00;95678.13;10530873;28;1920;-80
2023/09/01 06:34:47;;;;;;;;;;;;;;;17.67;100.00;95682.75;10534909;28;2208;-78
2023/09/01 06:39:49;;;;;;;;;;;;;;;17.78;100.00;95686.75;10532904;28;1972;-78
2023/09/01 06:44:51;;;;;;;;;;;;;;;18.26;100.00;95683.00;10535272;28;1990;-78
2023/09/01 06:49:54;;;;;;;;;;;;;;;18.59;100.00;95676.97;10525554;28;2009;-76
2023/09/01 06:54:56;;;;;;;;;;;;;;;18.50;100.00;95682.44;10531605;28;2188;-77
2023/09/01 06:59:59;;;;;;;;;;;;;;;18.37;100.00;95688.88;10530938;28;1928;-76
2023/09/01 07:05:02;;;;;;;;;;;;;;;18.69;100.00;95689.44;10528989;28;1430;-78
2023/09/01 07:10:04;;;;;;;;;;;;;;;18.91;100.00;95686.44;10529952;28;1493;-78
2023/09/01 07:15:07;;;;;;;;;;;;;;;18.86;100.00;95695.59;10531661;28;1481;-78
2023/09/01 07:20:10;;;;;;;;;;;;;;;18.61;100.00;95700.00;10535446;28;1978;-78
2023/09/01 07:25:14;;;;;;;;;;;;;;;18.71;100.00;95704.34;10541528;28;1863;-79
2023/09/01 07:30:16;;;;;;;;;;;;;;;18.69;100.00;95701.13;10528940;28;2388;-79
2023/09/01 07:35:19;;;;;;;;;;;;;;;19.13;100.00;95701.69;10560697;28;1896;-79
2023/09/01 07:40:21;;;;;;;;;;;;;;;19.51;100.00;95709.00;10546611;28;1918;-74
2023/09/01 07:45:24;;;;;;;;;;;;;;;20.14;100.00;95704.31;10530038;28;4698;-77
2023/09/01 07:50:30;;;;;;;;;;;;;;;20.55;100.00;95706.16;10537889;28;1904;-77
2023/09/01 07:55:32;;;;;;;;;;;;;;;21.29;100.00;95704.25;10533562;28;1511;-77
2023/09/01 08:00:36;;;;;;;;;;;;;;;21.48;100.00;95695.47;10530858;28;2213;-77
2023/09/01 08:05:39;;;;;;;;;;;;;;;22.19;100.00;95696.72;10539355;28;1438;-76
2023/09/01 08:10:41;;;;;;;;;;;;;;;22.08;100.00;95699.94;10538343;28;1361;-76
2023/09/01 08:15:44;;;;;;;;;;;;;;;21.61;100.00;95709.91;10532859;28;1519;-78
2023/09/01 08:20:46;;;;;;;;;;;;;;;21.28;100.00;95710.84;10524843;28;1926;-75
2023/09/01 08:25:48;;;;;;;;;;;;;;;21.72;100.00;95716.50;10547067;28;1290;-77
2023/09/01 08:30:53;;;;;;;;;;;;;;;22.28;100.00;95711.06;10546735;28;1318;-76
2023/09/01 08:35:55;;;;;;;;;;;;;;;22.51;100.00;95703.03;10549494;28;1362;-76
2023/09/01 08:40:58;;;;;;;;;;;;;;;22.33;100.00;95708.03;10546359;28;4532;-75
2023/09/01 08:46:00;;;;;;;;;;;;;;;22.73;100.00;95704.41;10552082;28;1345;-77
2023/09/01 08:51:16;;;;;;;;;;;;;;;23.18;100.00;95693.78;10547293;28;1122;-77
2023/09/01 08:56:19;;;;;;;;;;;;;;;22.89;100.00;95697.00;10547620;28;1909;-75
2023/09/01 09:01:24;;;;;;;;;;;;;;;23.53;100.00;95703.97;10546019;28;1832;-77
2023/09/01 09:06:27;;;;;;;;;;;;;;;23.70;100.00;95698.09;10551630;28;1453;-77
2023/09/01 09:11:29;;;;;;;;;;;;;;;22.97;100.00;95696.03;10540727;28;1456;-76
2023/09/01 09:16:32;;;;;;;;;;;;;;;22.72;100.00;95694.59;10552148;28;1910;-75
2023/09/01 09:21:34;;;;;;;;;;;;;;;23.10;100.00;95691.25;10530844;28;1059;-76
2023/09/01 09:26:36;;;;;;;;;;;;;;;22.99;100.00;95685.50;10549038;28;2411;-77
2023/09/01 09:31:40;;;;;;;;;;;;;;;22.85;100.00;95680.44;10545846;28;1533;-76
2023/09/01 09:36:42;;;;;;;;;;;;;;;23.25;100.00;95686.88;10556051;28;1914;-76
2023/09/01 09:41:45;;;;;;;;;;;;;;;22.97;100.00;95685.06;10540576;28;4521;-77
2023/09/01 09:46:49;;;;;;;;;;;;;;;22.80;100.00;95693.63;10546531;28;1550;-76
2023/09/01 09:51:51;;;;;;;;;;;;;;;22.71;100.00;95695.72;10547587;28;1393;-77
2023/09/01 09:56:53;;;;;;;;;;;;;;;22.94;100.00;95688.50;10551861;28;1975;-76
2023/09/01 10:01:56;;;;;;;;;;;;;;;23.10;100.00;95696.72;10550531;28;1423;-76
2023/09/01 10:06:59;;;;;;;;;;;;;;;23.11;100.00;95692.84;10551408;28;1390;-77
2023/09/01 10:12:01;;;;;;;;;;;;;;;22.77;100.00;95699.78;10536807;28;1442;-79
2023/09/01 10:17:04;;;;;;;;;;;;;;;22.85;100.00;95690.63;10550768;28;1976;-77
2023/09/01 10:22:06;;;;;;;;;;;;;;;22.78;100.00;95690.44;10553552;28;2491;-77
2023/09/01 10:27:09;;;;;;;;;;;;;;;23.10;100.00;95680.28;10557079;28;1758;-77
2023/09/01 10:32:11;;;;;;;;;;;;;;;23.22;100.00;95687.56;10539907;28;1492;-78
2023/09/01 10:37:13;;;;;;;;;;;;;;;23.34;100.00;95677.28;10536251;28;1967;-76
2023/09/01 10:42:16;;;;;;;;;;;;;;;23.49;100.00;95678.41;10561615;28;1194;-76
2023/09/01 10:47:18;;;;;;;;;;;;;;;23.69;98.54;95685.53;10554712;28;1392;-76
2023/09/01 10:52:22;;;;;;;;;;;;;;;23.69;96.69;95663.59;10558747;28;1441;-77
2023/09/01 10:57:25;;;;;;;;;;;;;;;23.92;97.73;95673.84;10563574;28;1910;-78
2023/09/01 11:02:28;;;;;;;;;;;;;;;23.58;94.09;95668.03;10551894;28;1480;-77
2023/09/01 11:07:31;;;;;;;;;;;;;;;23.19;95.34;95678.13;10554096;28;1137;-76
2023/09/01 11:12:33;;;;;;;;;;;;;;;22.96;100.00;95669.75;10576027;27;1520;-77
2023/09/01 11:17:37;;;;;;;;;;;;;;;22.95;100.00;95665.44;10552021;28;2343;-77
2023/09/01 11:22:39;;;;;;;;;;;;;;;22.99;100.00;95668.25;10555703;28;1557;-77
2023/09/01 11:27:42;;;;;;;;;;;;;;;23.10;98.06;95667.38;10553440;28;999;-76
2023/09/01 11:32:44;;;;;;;;;;;;;;;23.13;98.45;95663.91;10550254;28;1571;-78
2023/09/01 11:37:47;;;;;;;;;;;;;;;23.06;98.31;95666.47;10553793;28;1963;-77
2023/09/01 11:42:49;;;;;;;;;;;;;;;23.43;96.73;95666.13;10548415;28;4418;-78
2023/09/01 11:47:51;;;;;;;;;;;;;;;23.45;90.77;95664.63;10550396;28;1365;-77
2023/09/01 11:52:55;;;;;;;;;;;;;;;23.42;97.88;95656.31;10530749;28;1360;-78
2023/09/01 11:57:57;;;;;;;;;;;;;;;23.58;94.13;95646.06;10549503;28;1910;-77
2023/09/01 12:03:00;;;;;;;;;;;;;;;23.62;94.75;95652.47;10548303;28;1627;-78
2023/09/01 12:08:02;;;;;;;;;;;;;;;24.19;89.48;95648.09;10550892;28;1593;-77
2023/09/01 12:13:05;;;;;;;;;;;;;;;24.24;91.65;95658.81;10553741;28;2626;-77
2023/09/01 12:18:07;;;;;;;;;;;;;;;24.41;85.67;95646.56;10552296;28;2083;-76
2023/09/01 12:23:10;;;;;;;;;;;;;;;25.02;85.53;95655.81;10544621;28;1439;-77
2023/09/01 12:28:12;;;;;;;;;;;;;;;25.23;82.09;95652.63;10537387;28;1034;-77
2023/09/01 12:33:15;;;;;;;;;;;;;;;25.22;81.39;95643.56;10547364;28;1650;-77
2023/09/01 12:38:18;;;;;;;;;;;;;;;25.45;80.45;95638.00;10548527;28;1914;-76
2023/09/01 12:43:20;;;;;;;;;;;;;;;26.14;75.87;95632.94;10545107;28;4756;-78
2023/09/01 12:48:23;;;;;;;;;;;;;;;26.46;74.18;95626.22;10541919;28;1547;-78
2023/09/01 12:53:25;;;;;;;;;;;;;;;26.21;73.74;95625.94;10541724;28;1279;-78
2023/09/01 12:58:28;;;;;;;;;;;;;;;25.60;80.54;95625.22;10550794;28;1981;-75
2023/09/01 13:03:31;;;;;;;;;;;;;;;25.57;77.73;95621.25;10555419;28;1105;-76
2023/09/01 13:08:34;;;;;;;;;;;;;;;25.06;76.98;95629.19;10554228;28;2208;-76
2023/09/01 13:13:36;;;;;;;;;;;;;;;24.92;78.22;95623.44;10544226;28;1452;-77
2023/09/01 13:18:39;;;;;;;;;;;;;;;25.34;78.38;95635.09;10542323;28;1914;-77
2023/09/01 13:23:41;;;;;;;;;;;;;;;25.58;78.79;95624.81;10544128;28;1321;-77
2023/09/01 13:28:45;;;;;;;;;;;;;;;25.48;76.79;95615.25;10545401;28;1393;-77
2023/09/01 13:33:47;;;;;;;;;;;;;;;25.32;77.44;95623.69;10547168;28;1007;-77
2023/09/01 13:38:50;;;;;;;;;;;;;;;25.37;81.41;95621.75;10539270;28;1927;-78
2023/09/01 13:43:52;;;;;;;;;;;;;;;25.54;79.57;95615.72;10538217;28;4611;-77
2023/09/01 13:48:54;;;;;;;;;;;;;;;25.44;85.67;95617.13;10543397;28;1416;-77
2023/09/01 13:53:57;;;;;;;;;;;;;;;25.48;88.76;95612.50;10549305;28;1039;-79
2023/09/01 13:58:59;;;;;;;;;;;;;;;25.09;86.59;95611.97;10539306;28;1914;-77
2023/09/01 14:04:02;;;;;;;;;;;;;;;25.09;87.94;95611.97;10552639;28;2262;-77
2023/09/01 14:09:08;;;;;;;;;;;;;;;25.14;88.22;95608.88;10543700;28;1553;-77
2023/09/01 14:14:10;;;;;;;;;;;;;;;25.16;90.35;95611.25;10528097;28;1456;-77
2023/09/01 14:19:12;;;;;;;;;;;;;;;24.88;94.79;95612.41;10523124;28;1911;-76
2023/09/01 14:24:15;;;;;;;;;;;;;;;25.41;88.77;95606.91;10553547;28;1397;-77
2023/09/01 14:29:17;;;;;;;;;;;;;;;25.93;86.08;95605.19;10551353;28;1440;-77
2023/09/01 14:34:20;;;;;;;;;;;;;;;25.58;88.29;95594.53;10521667;28;1095;-77
2023/09/01 14:39:22;;;;;;;;;;;;;;;25.42;88.38;95602.97;10551559;28;1917;-78
2023/09/01 14:44:25;;;;;;;;;;;;;;;24.78;91.43;95605.56;10543676;28;4480;-78
2023/09/01 14:49:29;;;;;;;;;;;;;;;24.63;92.48;95601.03;10552945;28;1133;-78
2023/09/01 14:54:31;;;;;;;;;;;;;;;24.64;93.09;95616.34;10558791;28;1310;-78
2023/09/01 14:59:34;;;;;;;;;;;;;;;24.84;92.91;95602.50;10540860;28;1961;-78
2023/09/01 15:04:36;;;;;;;;;;;;;;;24.95;97.10;95597.97;10548640;28;2398;-78
2023/09/01 15:09:39;;;;;;;;;;;;;;;24.66;97.60;95594.78;10550936;28;1705;-77
2023/09/01 15:14:41;;;;;;;;;;;;;;;24.62;93.98;95604.94;10553249;28;1459;-77
2023/09/01 15:19:44;;;;;;;;;;;;;;;24.64;94.98;95601.81;10555767;28;1982;-77
2023/09/01 15:24:46;;;;;;;;;;;;;;;24.31;97.34;95605.94;10556464;28;1385;-77
2023/09/01 15:29:48;;;;;;;;;;;;;;;24.27;99.54;95605.88;10542840;28;1480;-76
2023/09/01 15:34:51;;;;;;;;;;;;;;;24.28;99.81;95604.72;10548240;28;1202;-78
2023/09/01 15:40:13;;;;;;;;;;;;;;;24.25;99.83;95608.19;10549689;28;1910;-76
2023/09/01 15:45:16;;;;;;;;;;;;;;;24.38;99.41;95600.59;10557373;28;1408;-75
2023/09/01 15:50:18;;;;;;;;;;;;;;;24.36;99.90;95602.91;10553285;28;1186;-78
2023/09/01 15:55:37;;;;;;;;;;;;;;;24.10;100.00;95606.34;10520775;28;1326;-78
2023/09/01 16:00:40;;;;;;;;;;;;;;;23.86;100.00;95612.19;10538995;28;2334;-78
2023/09/01 16:05:42;;;;;;;;;;;;;;;23.62;100.00;95605.03;10553489;28;1322;-78
2023/09/01 16:10:45;;;;;;;;;;;;;;;23.33;100.00;95601.66;10550841;28;1122;-77
2023/09/01 16:15:47;;;;;;;;;;;;;;;23.37;100.00;95613.50;10549176;28;1413;-77
2023/09/01 16:20:52;;;;;;;;;;;;;;;23.09;100.00;95601.91;10547893;28;1975;-77
2023/09/01 16:25:55;;;;;;;;;;;;;;;22.90;100.00;95608.97;10541672;28;1466;-77
2023/09/01 16:30:57;;;;;;;;;;;;;;;22.81;100.00;95608.31;10548411;28;1404;-78
2023/09/01 16:36:00;;;;;;;;;;;;;;;23.16;100.00;95613.84;10552119;28;1176;-77
2023/09/01 16:41:02;;;;;;;;;;;;;;;22.99;100.00;95614.22;10552525;28;1914;-76
2023/09/01 16:46:05;;;;;;;;;;;;;;;22.96;100.00;95619.63;10539504;28;1357;-76
2023/09/01 16:51:07;;;;;;;;;;;;;;;22.89;100.00;95620.25;10551182;28;1322;-77
2023/09/01 16:56:10;;;;;;;;;;;;;;;22.76;100.00;95613.25;10538163;28;2444;-77
2023/09/01 17:01:12;;;;;;;;;;;;;;;22.58;100.00;95619.09;10544931;28;1918;-77
2023/09/01 17:06:15;;;;;;;;;;;;;;;22.37;100.00;95629.53;10551580;28;1146;-78
2023/09/01 17:11:17;;;;;;;;;;;;;;;22.09;100.00;95624.13;10542141;28;1596;-79
2023/09/01 17:16:21;;;;;;;;;;;;;;;21.74;100.00;95618.44;10540988;28;1444;-76
2023/09/01 17:21:23;;;;;;;;;;;;;;;21.47;100.00;95622.75;10528900;28;1894;-77
2023/09/01 17:26:25;;;;;;;;;;;;;;;21.20;100.00;95625.09;10540676;28;1571;-76
2023/09/01 17:31:28;;;;;;;;;;;;;;;21.03;100.00;95637.06;10547664;28;1420;-78
2023/09/01 17:36:30;;;;;;;;;;;;;;;20.93;100.00;95640.28;10550958;28;1039;-77
2023/09/01 17:41:33;;;;;;;;;;;;;;;20.75;100.00;95647.13;10533638;28;4587;-77
2023/09/01 17:46:35;;;;;;;;;;;;;;;20.58;100.00;95650.84;10536991;28;1424;-77
2023/09/01 17:51:38;;;;;;;;;;;;;;;20.44;100.00;95650.38;10552148;28;2408;-77
2023/09/01 17:56:40;;;;;;;;;;;;;;;20.17;100.00;95657.25;10549075;28;1650;-78
2023/09/01 18:01:42;;;;;;;;;;;;;;;20.11;100.00;95658.59;10547900;28;1981;-77
2023/09/01 18:06:45;;;;;;;;;;;;;;;19.82;100.00;95660.31;10543046;28;1146;-78
2023/09/01 18:11:47;;;;;;;;;;;;;;;19.61;100.00;95665.81;10548005;28;1447;-76
2023/09/01 18:16:50;;;;;;;;;;;;;;;19.48;100.00;95668.78;10543457;28;1373;-78
2023/09/01 18:21:52;;;;;;;;;;;;;;;19.34;100.00;95672.56;10554613;28;1894;-77
2023/09/01 18:26:55;;;;;;;;;;;;;;;19.19;100.00;95681.31;10557629;28;1317;-77
2023/09/01 18:31:57;;;;;;;;;;;;;;;19.09;100.00;95689.88;10554346;28;1436;-78
2023/09/01 18:37:03;;;;;;;;;;;;;;;19.04;100.00;95698.25;10546186;28;1079;-77
2023/09/01 18:42:05;;;;;;;;;;;;;;;19.01;100.00;95707.06;10544396;28;4535;-78
2023/09/01 18:47:08;;;;;;;;;;;;;;;18.99;100.00;95715.56;10547779;28;2327;-77
2023/09/01 18:52:10;;;;;;;;;;;;;;;18.89;100.00;95711.31;10558369;28;1618;-78
2023/09/01 18:57:13;;;;;;;;;;;;;;;18.76;100.00;95715.03;10553936;28;1411;-76
2023/09/01 19:02:16;;;;;;;;;;;;;;;18.68;100.00;95721.31;10534177;28;1985;-77
2023/09/01 19:07:18;;;;;;;;;;;;;;;18.53;100.00;95730.00;10550976;28;1016;-77
2023/09/01 19:12:21;;;;;;;;;;;;;;;18.40;100.00;95731.00;10547087;28;1534;-78
2023/09/01 19:17:25;;;;;;;;;;;;;;;18.29;100.00;95734.03;10551354;28;1345;-77
2023/09/01 19:22:27;;;;;;;;;;;;;;;18.21;100.00;95740.31;10550935;28;1918;-78
2023/09/01 19:27:30;;;;;;;;;;;;;;;18.20;100.00;95737.91;10548404;28;1453;-77
2023/09/01 19:32:32;;;;;;;;;;;;;;;18.18;100.00;95746.38;10549382;28;1348;-78
2023/09/01 19:37:35;;;;;;;;;;;;;;;18.16;100.00;95745.91;10557720;28;1094;-79
2023/09/01 19:42:37;;;;;;;;;;;;;;;18.16;100.00;95745.91;10553388;28;4456;-79
2023/09/01 19:47:40;;;;;;;;;;;;;;;18.17;100.00;95749.44;10558474;28;1663;-79
2023/09/01 19:52:42;;;;;;;;;;;;;;;18.12;100.00;95747.66;10529119;28;1381;-78
2023/09/01 19:57:44;;;;;;;;;;;;;;;17.92;100.00;95764.66;10534287;28;982;-77
2023/09/01 20:02:47;;;;;;;;;;;;;;;17.79;100.00;95769.91;10551204;28;1979;-76
2023/09/01 20:07:49;;;;;;;;;;;;;;;17.70;100.00;95774.53;10552982;28;1043;-78
2023/09/01 20:12:52;;;;;;;;;;;;;;;17.69;100.00;95764.78;10555518;28;1369;-77
2023/09/01 20:17:54;;;;;;;;;;;;;;;17.49;100.00;95768.09;10550107;28;1524;-77
2023/09/01 20:22:57;;;;;;;;;;;;;;;17.39;100.00;95776.56;10539084;28;1909;-77
2023/09/01 20:27:59;;;;;;;;;;;;;;;17.31;100.00;95780.06;10550515;28;1919;-77
2023/09/01 20:33:02;;;;;;;;;;;;;;;17.22;100.00;95788.97;10554252;28;1659;-78
2023/09/01 20:38:04;;;;;;;;;;;;;;;17.20;100.00;95798.56;10555722;28;2691;-77
2023/09/01 20:43:07;;;;;;;;;;;;;;;17.12;100.00;95792.00;10548733;28;4630;-78
2023/09/01 20:48:09;;;;;;;;;;;;;;;17.09;100.00;95792.63;10539366;28;1636;-76
2023/09/01 20:53:12;;;;;;;;;;;;;;;17.02;100.00;95798.50;10539934;28;1282;-77
2023/09/01 20:58:14;;;;;;;;;;;;;;;16.95;100.00;95802.78;10540247;28;1289;-78
2023/09/01 21:03:17;;;;;;;;;;;;;;;16.85;100.00;95800.34;10547644;28;1987;-77
2023/09/01 21:08:20;;;;;;;;;;;;;;;16.74;100.00;95810.69;10544203;28;1530;-77
2023/09/01 21:13:22;;;;;;;;;;;;;;;16.64;100.00;95814.44;10541250;28;1413;-77
2023/09/01 21:18:25;;;;;;;;;;;;;;;16.48;100.00;95815.94;10533139;28;1159;-78
2023/09/01 21:23:27;;;;;;;;;;;;;;;16.49;100.00;95828.41;10551760;28;1979;-78
2023/09/01 21:28:29;;;;;;;;;;;;;;;16.34;100.00;95826.03;10552952;28;1326;-79
2023/09/01 21:33:34;;;;;;;;;;;;;;;16.30;100.00;95831.28;10555539;28;1051;-77
2023/09/01 21:38:36;;;;;;;;;;;;;;;16.30;100.00;95831.28;10544588;28;2533;-79
2023/09/01 21:43:39;;;;;;;;;;;;;;;16.26;100.00;95835.72;10548056;28;4509;-77
2023/09/01 21:48:41;;;;;;;;;;;;;;;16.23;100.00;95830.94;10537763;28;1094;-77
2023/09/01 21:53:44;;;;;;;;;;;;;;;16.21;100.00;95838.56;10550060;28;1409;-78
2023/09/01 21:58:46;;;;;;;;;;;;;;;16.07;100.00;95848.66;10541001;28;1421;-78
2023/09/01 22:03:48;;;;;;;;;;;;;;;15.97;100.00;95855.13;10536092;28;1909;-78
2023/09/01 22:08:51;;;;;;;;;;;;;;;15.92;100.00;95856.03;10538205;28;1215;-76
2023/09/01 22:13:53;;;;;;;;;;;;;;;15.88;100.00;95856.94;10545897;28;1440;-77
2023/09/01 22:18:56;;;;;;;;;;;;;;;15.84;100.00;95864.06;10548074;28;1113;-76
2023/09/01 22:23:58;;;;;;;;;;;;;;;15.76;100.00;95868.31;10545872;28;1978;-77
2023/09/01 22:29:01;;;;;;;;;;;;;;;15.76;100.00;95868.31;10552066;28;1420;-77
2023/09/01 22:34:03;;;;;;;;;;;;;;;15.78;100.00;95876.16;10530137;28;2333;-74
2023/09/01 22:39:05;;;;;;;;;;;;;;;15.77;100.00;95871.81;10546987;28;1539;-75
2023/09/01 22:44:08;;;;;;;;;;;;;;;15.71;100.00;95879.25;10553464;28;1914;-76
2023/09/01 22:49:10;;;;;;;;;;;;;;;15.63;100.00;95874.53;10552543;28;1461;-76
2023/09/01 22:54:13;;;;;;;;;;;;;;;15.65;100.00;95883.19;10553521;28;1539;-74
2023/09/01 22:59:15;;;;;;;;;;;;;;;15.56;100.00;95888.47;10547895;28;1400;-76
2023/09/01 23:04:18;;;;;;;;;;;;;;;15.56;100.00;95899.31;10550760;28;1969;-76
2023/09/01 23:09:20;;;;;;;;;;;;;;;15.52;100.00;95892.88;10554925;28;1408;-76
2023/09/01 23:14:22;;;;;;;;;;;;;;;15.46;100.00;95899.53;10551263;28;1377;-77
2023/09/01 23:19:25;;;;;;;;;;;;;;;15.42;100.00;95893.09;10572990;27;1424;-77
2023/09/01 23:24:28;;;;;;;;;;;;;;;15.42;100.00;95893.09;10543397;28;1910;-78
2023/09/01 23:29:31;;;;;;;;;;;;;;;15.40;100.00;95889.91;10542343;28;2454;-80
2023/09/01 23:34:33;;;;;;;;;;;;;;;15.39;100.00;95893.69;10546992;28;1488;-76
2023/09/01 23:39:35;;;;;;;;;;;;;;;15.38;100.00;95895.59;10549617;28;1496;-77
2023/09/01 23:44:38;;;;;;;;;;;;;;;15.21;100.00;95891.91;10555517;28;4813;-77
2023/09/01 23:49:40;;;;;;;;;;;;;;;15.13;100.00;95894.19;10553968;28;1588;-76
2023/09/01 23:54:44;;;;;;;;;;;;;;;15.08;100.00;95894.28;10550948;28;1529;-76
2023/09/01 23:59:47;;;;;;;;;;;;;;;15.00;100.00;95897.66;10548306;28;1333;-77
